Time;durP1;ratioP1;P1;durP2;ratioP2;P2;SDS_P1;SDS_P2;PMS_P1;PMS_P2;Temp;Humidity;BMP_temperature;BMP_pressure;BME280_temperature;BME280_humidity;BME280_pressure;Samples;Min_cycle;Max_cycle;Signal;HPM_P1;HPM_P2
2023/04/21 18:11:41;;;;;;;3.97;2.10;;;;;;;9.78;54.19;101267.78;2128263;27;20379;-83
2023/04/21 18:12:49;;;;;;;3.47;1.70;;;;;;;9.78;52.57;101265.09;2120670;27;20231;-80
2023/04/21 18:13:56;;;;;;;8.05;2.08;;;;;;;9.80;52.90;101266.44;2122301;27;20206;-81
2023/04/21 18:14:59;;;;;;;4.03;2.13;;;;;;;9.87;53.15;101267.06;2111780;28;20035;-71
2023/04/21 18:16:02;;;;;;;7.07;2.20;;;;;;;9.92;53.06;101268.97;2111575;27;20359;-71
2023/04/21 18:17:09;;;;;;;7.57;2.17;;;;;;;9.96;53.27;101268.22;2118182;27;20262;-69
2023/04/21 18:18:12;;;;;;;4.10;2.38;;;;;;;10.02;53.36;101260.16;2120979;27;20205;-71
2023/04/21 18:19:17;;;;;;;4.35;2.20;;;;;;;10.02;53.19;101260.16;2116393;27;21046;-70
2023/04/21 18:20:22;;;;;;;5.45;2.22;;;;;;;10.06;52.89;101263.97;2120495;27;20277;-70
2023/04/21 18:21:25;;;;;;;6.13;2.38;;;;;;;10.10;53.25;101265.88;2122882;27;20957;-71
2023/04/21 18:22:28;;;;;;;6.47;2.45;;;;;;;10.12;53.50;101260.25;2098065;27;21688;-71
2023/04/21 18:23:30;;;;;;;6.47;2.33;;;;;;;10.12;53.48;101261.06;2109925;27;21104;-69
2023/04/21 18:24:39;;;;;;;4.03;2.10;;;;;;;10.12;53.04;101265.59;2109291;27;20261;-69
2023/04/21 18:25:49;;;;;;;5.30;2.08;;;;;;;10.09;52.65;101258.09;2110625;27;20977;-71
2023/04/21 18:26:51;;;;;;;5.65;2.10;;;;;;;10.07;51.76;101262.91;2123644;27;20206;-69
2023/04/21 18:27:59;;;;;;;6.38;2.10;;;;;;;10.05;51.26;101259.66;2121538;27;21576;-71
2023/04/21 18:29:10;;;;;;;3.92;1.80;;;;;;;10.00;50.56;101255.06;2116479;27;20315;-72
2023/04/21 18:30:19;;;;;;;2.70;1.73;;;;;;;10.00;49.55;101256.94;2120488;27;20206;-70
2023/04/21 18:31:27;;;;;;;5.10;1.90;;;;;;;9.94;50.00;101256.91;2129551;27;20242;-70
2023/04/21 18:32:33;;;;;;;3.42;1.75;;;;;;;9.91;50.07;101252.03;2111074;28;21400;-69
2023/04/21 18:33:37;;;;;;;6.57;2.15;;;;;;;9.88;50.38;101262.50;2112345;27;20218;-70
2023/04/21 18:34:51;;;;;;;3.15;1.80;;;;;;;9.77;51.23;101264.25;2119071;27;20210;-69
2023/04/21 18:35:54;;;;;;;5.22;1.67;;;;;;;9.65;51.46;101261.75;2110994;28;20375;-69
2023/04/21 18:36:57;;;;;;;3.60;1.90;;;;;;;9.55;52.27;101258.97;2112134;27;20238;-68
2023/04/21 18:37:59;;;;;;;2.50;1.80;;;;;;;9.50;53.48;101259.75;2119975;27;21151;-70
2023/04/21 18:39:04;;;;;;;2.65;1.73;;;;;;;9.42;55.28;101254.81;2120152;27;20215;-72
2023/04/21 18:40:11;;;;;;;2.67;1.80;;;;;;;9.54;56.80;101259.22;2111646;28;20267;-75
2023/04/21 18:41:14;;;;;;;4.25;1.88;;;;;;;9.47;56.67;101248.72;2106070;27;20322;-69
2023/04/21 18:42:17;;;;;;;4.78;2.00;;;;;;;9.61;56.08;101249.09;2128106;27;20233;-68
2023/04/21 18:43:23;;;;;;;4.80;1.90;;;;;;;9.74;55.36;101259.41;2118927;27;20337;-70
2023/04/21 18:44:28;;;;;;;5.57;2.00;;;;;;;9.78;55.00;101249.78;2120378;27;20118;-70
2023/04/21 18:45:35;;;;;;;6.65;2.85;;;;;;;9.78;54.22;101249.00;2104917;28;20028;-70
2023/04/21 18:46:40;;;;;;;3.63;2.30;;;;;;;9.77;54.04;101253.53;2104098;27;20799;-70
2023/04/21 18:47:44;;;;;;;5.72;2.78;;;;;;;9.77;54.47;101252.72;2119771;27;20325;-68
2023/04/21 18:48:48;;;;;;;5.45;2.63;;;;;;;9.76;54.44;101249.22;2109908;28;20067;-68
2023/04/21 18:49:50;;;;;;;7.95;3.35;;;;;;;9.72;55.07;101242.75;2095725;27;20826;-68
2023/04/21 18:50:51;;;;;;;7.88;3.10;;;;;;;9.63;54.52;101241.59;2099842;28;21181;-68
2023/04/21 18:52:00;;;;;;;6.55;3.25;;;;;;;9.58;54.88;101250.41;2111186;27;20945;-69
2023/04/21 18:53:05;;;;;;;7.82;3.55;;;;;;;9.60;54.56;101239.44;2105488;27;20206;-68
2023/04/21 18:54:12;;;;;;;8.55;3.92;;;;;;;9.60;55.69;101239.44;2102595;28;20278;-67
2023/04/21 18:55:17;;;;;;;6.55;3.28;;;;;;;9.60;54.81;101234.88;2110886;27;20235;-68
2023/04/21 18:56:19;;;;;;;7.20;3.50;;;;;;;9.58;54.36;101239.66;2120560;27;20016;-68
2023/04/21 18:57:24;;;;;;;8.43;3.70;;;;;;;9.60;54.75;101236.75;2129082;27;20030;-68
2023/04/21 18:58:28;;;;;;;9.27;4.57;;;;;;;9.59;55.29;101235.13;2119472;27;20202;-69
2023/04/21 18:59:32;;;;;;;6.80;3.65;;;;;;;9.62;55.21;101234.63;2111492;27;20210;-68
2023/04/21 19:00:39;;;;;;;9.73;3.85;;;;;;;9.60;55.29;101228.69;2119908;27;21037;-68
2023/04/21 19:01:42;;;;;;;10.55;3.78;;;;;;;9.61;54.64;101238.34;2120588;27;21199;-68
2023/04/21 19:02:47;;;;;;;6.90;3.85;;;;;;;9.65;54.37;101236.78;2119470;27;20995;-69
2023/04/21 19:03:48;;;;;;;8.85;3.85;;;;;;;9.66;54.72;101228.47;2111992;27;20219;-68
2023/04/21 19:04:50;;;;;;;8.25;3.67;;;;;;;9.65;54.59;101231.44;2102586;28;20048;-67
2023/04/21 19:05:52;;;;;;;8.35;3.97;;;;;;;9.66;54.20;101231.16;2102537;27;20139;-67
2023/04/21 19:06:57;;;;;;;8.82;4.10;;;;;;;9.64;54.20;101224.41;2108976;27;20283;-68
2023/04/21 19:08:00;;;;;;;9.77;4.22;;;;;;;9.67;53.80;101215.84;2117747;27;20206;-67
2023/04/21 19:09:04;;;;;;;9.77;4.40;;;;;;;9.66;55.06;101220.41;2127279;27;20250;-68
2023/04/21 19:10:11;;;;;;;13.15;5.03;;;;;;;9.65;54.65;101228.75;2127636;27;20196;-68
2023/04/21 19:11:16;;;;;;;8.85;4.45;;;;;;;9.63;55.01;101222.81;2119330;27;20250;-67
2023/04/21 19:12:27;;;;;;;11.20;5.05;;;;;;;9.64;54.77;101221.72;2096864;28;20267;-67
2023/04/21 19:13:31;;;;;;;10.52;4.00;;;;;;;9.64;54.82;101227.09;2106372;27;20248;-66
2023/04/21 19:14:41;;;;;;;8.55;4.82;;;;;;;9.64;54.61;101227.91;2103965;28;20274;-68
2023/04/21 19:15:48;;;;;;;12.25;4.85;;;;;;;9.63;55.08;101215.56;2104336;28;21073;-68
2023/04/21 19:16:52;;;;;;;12.93;4.30;;;;;;;9.62;55.64;101213.16;2094256;28;20212;-69
2023/04/21 19:17:57;;;;;;;12.15;4.15;;;;;;;9.61;55.35;101222.25;2104499;27;20131;-68
2023/04/21 19:19:03;;;;;;;7.63;4.13;;;;;;;9.60;55.39;101223.31;2103300;28;21157;-67
2023/04/21 19:20:07;;;;;;;9.95;4.30;;;;;;;9.58;55.88;101220.06;2104362;27;20037;-69
2023/04/21 19:21:12;;;;;;;7.25;4.07;;;;;;;9.57;55.51;101223.81;2119372;27;20254;-68
2023/04/21 19:22:13;;;;;;;8.75;4.22;;;;;;;9.58;55.34;101222.75;2125662;27;20093;-67
2023/04/21 19:23:17;;;;;;;6.72;4.05;;;;;;;9.57;56.03;101218.47;2118944;27;20221;-68
2023/04/21 19:24:26;;;;;;;7.95;4.38;;;;;;;9.56;55.68;101216.84;2131384;27;20222;-68
2023/04/21 19:25:32;;;;;;;8.57;4.72;;;;;;;9.57;55.81;101221.16;2126256;27;20280;-67
2023/04/21 19:26:35;;;;;;;9.60;4.53;;;;;;;9.55;55.32;101217.88;2115530;27;20205;-68
2023/04/21 19:27:38;;;;;;;11.55;4.35;;;;;;;9.55;55.78;101220.56;2122604;27;20317;-67
2023/04/21 19:28:43;;;;;;;9.18;4.63;;;;;;;9.55;56.21;101209.84;2107924;27;20255;-68
2023/04/21 19:29:47;;;;;;;7.93;4.60;;;;;;;9.55;56.21;101216.00;2113544;28;20074;-68
2023/04/21 19:30:50;;;;;;;11.95;4.30;;;;;;;9.54;56.54;101216.28;2118286;27;20832;-67
2023/04/21 19:31:52;;;;;;;7.97;4.78;;;;;;;9.52;56.10;101217.34;2105603;28;20845;-68
2023/04/21 19:32:55;;;;;;;10.32;4.75;;;;;;;9.52;56.21;101217.34;2089059;28;20867;-68
2023/04/21 19:33:58;;;;;;;9.00;4.65;;;;;;;9.45;56.40;101207.88;2098416;27;20025;-68
2023/04/21 19:35:01;;;;;;;12.07;4.82;;;;;;;9.47;56.22;101211.13;2113849;27;20360;-68
2023/04/21 19:36:05;;;;;;;10.23;4.60;;;;;;;9.45;55.97;101211.38;2122174;27;20027;-67
2023/04/21 19:37:09;;;;;;;10.70;4.95;;;;;;;9.47;56.11;101214.63;2114226;27;20251;-69
2023/04/21 19:38:15;;;;;;;10.25;5.43;;;;;;;9.46;56.48;101210.31;2120101;27;20194;-68
2023/04/21 19:39:19;;;;;;;11.93;6.43;;;;;;;9.46;56.47;101212.19;2096669;28;20244;-68
2023/04/21 19:40:23;;;;;;;14.23;7.05;;;;;;;9.47;56.38;101213.81;2073450;28;20225;-68
2023/04/21 19:41:28;;;;;;;18.70;9.95;;;;;;;9.46;56.87;101209.50;2102840;28;21064;-68
2023/04/21 19:42:36;;;;;;;17.52;6.43;;;;;;;9.44;56.88;101214.31;2121512;27;20226;-68
2023/04/21 19:43:37;;;;;;;10.68;5.70;;;;;;;9.44;56.67;101211.63;2113767;28;21142;-68
2023/04/21 19:44:41;;;;;;;12.18;4.70;;;;;;;9.39;55.98;101206.22;2097436;28;20259;-68
2023/04/21 19:45:46;;;;;;;9.40;4.50;;;;;;;9.38;55.23;101207.28;2104438;28;20219;-69
2023/04/21 19:46:50;;;;;;;11.27;4.50;;;;;;;9.34;55.11;101201.63;2105416;27;21082;-67
2023/04/21 19:47:54;;;;;;;12.52;4.50;;;;;;;9.32;54.62;101202.94;2113943;27;20259;-66
2023/04/21 19:49:00;;;;;;;6.80;3.78;;;;;;;9.26;54.61;101194.81;2105975;28;20037;-72
2023/04/21 19:50:03;;;;;;;9.43;4.00;;;;;;;9.28;54.51;101200.75;2097514;28;20244;-67
2023/04/21 19:51:06;;;;;;;8.75;4.03;;;;;;;9.28;54.97;101199.94;2106047;27;21359;-69
2023/04/21 19:52:07;;;;;;;7.80;4.22;;;;;;;9.25;55.76;101197.78;2110143;27;20199;-67
2023/04/21 19:53:13;;;;;;;10.70;4.13;;;;;;;9.24;55.38;101199.66;2101749;28;21830;-67
2023/04/21 19:54:18;;;;;;;9.30;4.30;;;;;;;9.28;54.99;101197.25;2115019;27;20251;-68
2023/04/21 19:55:20;;;;;;;6.25;3.47;;;;;;;9.26;54.62;101197.50;2104940;28;20196;-67
2023/04/21 19:56:25;;;;;;;8.18;3.60;;;;;;;9.26;54.91;101194.00;2097237;28;21095;-69
2023/04/21 19:57:27;;;;;;;7.97;3.72;;;;;;;9.23;54.40;101189.97;2106404;28;20326;-67
2023/04/21 19:58:31;;;;;;;5.90;3.50;;;;;;;9.25;54.81;101197.78;2114408;27;20199;-67
2023/04/21 19:59:35;;;;;;;7.70;3.83;;;;;;;9.26;54.48;101194.00;2122519;27;20324;-67
2023/04/21 20:00:36;;;;;;;5.15;3.38;;;;;;;9.25;54.85;101197.78;2104698;28;20338;-66
2023/04/21 20:01:38;;;;;;;7.55;3.53;;;;;;;9.23;54.94;101189.16;2096894;28;21009;-67
2023/04/21 20:02:40;;;;;;;7.03;3.40;;;;;;;9.22;54.04;101188.34;2089025;28;20968;-67
2023/04/21 20:03:46;;;;;;;6.80;3.90;;;;;;;9.20;53.82;101189.66;2076503;28;21224;-68
2023/04/21 20:04:47;;;;;;;5.72;3.17;;;;;;;9.23;53.72;101181.09;2074319;28;20210;-67
2023/04/21 20:05:49;;;;;;;10.00;3.50;;;;;;;9.23;54.05;101181.91;2072009;28;20206;-68
2023/04/21 20:06:53;;;;;;;8.70;3.60;;;;;;;9.23;54.02;101187.28;2095647;27;20217;-67
2023/04/21 20:08:00;;;;;;;8.18;3.45;;;;;;;9.21;52.40;101180.56;2114818;27;20230;-68
2023/04/21 20:09:05;;;;;;;6.90;3.50;;;;;;;9.19;53.37;101180.00;2123109;27;20853;-67
2023/04/21 20:10:12;;;;;;;6.32;3.58;;;;;;;9.21;53.58;101185.94;2114654;27;21073;-67
2023/04/21 20:11:16;;;;;;;7.60;3.65;;;;;;;9.21;53.45;101185.94;2122163;27;20031;-68
2023/04/21 20:12:20;;;;;;;5.00;2.90;;;;;;;9.19;53.78;101182.69;2121917;27;21628;-67
2023/04/21 20:13:25;;;;;;;7.40;3.83;;;;;;;9.17;53.38;101184.81;2114390;27;20254;-67
2023/04/21 20:14:28;;;;;;;5.30;3.13;;;;;;;9.15;53.74;101185.06;2117331;27;20743;-67
2023/04/21 20:15:39;;;;;;;6.68;3.35;;;;;;;9.15;53.69;101176.22;2123081;27;21146;-68
2023/04/21 20:16:46;;;;;;;7.50;3.33;;;;;;;9.12;53.46;101184.78;2122413;27;20194;-67
2023/04/21 20:17:48;;;;;;;8.52;4.10;;;;;;;9.12;53.49;101184.78;2123050;27;21146;-67
2023/04/21 20:18:55;;;;;;;7.07;3.50;;;;;;;9.11;53.56;101180.44;2121671;27;20244;-67
2023/04/21 20:20:00;;;;;;;10.88;4.00;;;;;;;9.11;53.66;101186.66;2122552;27;20222;-69
2023/04/21 20:21:07;;;;;;;15.60;7.45;;;;;;;9.10;53.78;101178.84;2121631;27;20218;-67
2023/04/21 20:22:15;;;;;;;18.67;9.82;;;;;;;9.03;53.94;101171.81;2122422;27;20234;-69
2023/04/21 20:23:19;;;;;;;20.23;9.05;;;;;;;9.08;53.88;101179.09;2110953;27;20357;-68
2023/04/21 20:24:25;;;;;;;16.73;7.93;;;;;;;9.07;54.49;101179.34;2122856;27;21070;-67
2023/04/21 20:25:28;;;;;;;17.77;8.63;;;;;;;9.08;54.46;101184.47;2118049;27;20274;-68
2023/04/21 20:26:32;;;;;;;16.38;6.90;;;;;;;9.05;54.00;101175.06;2105014;28;20204;-67
2023/04/21 20:27:35;;;;;;;24.15;10.10;;;;;;;9.05;54.63;101169.69;2103558;27;20834;-68
2023/04/21 20:28:38;;;;;;;57.75;21.13;;;;;;;9.07;54.28;101173.97;2122114;27;20211;-69
2023/04/21 20:29:41;;;;;;;42.65;15.63;;;;;;;9.08;53.83;101180.94;2113713;27;20249;-68
2023/04/21 20:30:45;;;;;;;24.63;10.30;;;;;;;9.07;53.87;101180.16;2113812;27;20265;-68
2023/04/21 20:31:47;;;;;;;15.90;6.40;;;;;;;9.05;53.72;101177.72;2121598;27;20237;-68
2023/04/21 20:32:49;;;;;;;10.90;5.03;;;;;;;9.07;53.40;101180.16;2113877;27;20387;-68
2023/04/21 20:33:51;;;;;;;12.75;5.38;;;;;;;9.05;53.39;101177.72;2087960;28;21212;-67
2023/04/21 20:34:53;;;;;;;9.43;4.07;;;;;;;9.03;53.85;101171.81;2096493;27;20339;-67
2023/04/21 20:36:06;;;;;;;7.93;3.90;;;;;;;9.02;54.24;101178.22;2121889;27;21067;-68
2023/04/21 20:37:15;;;;;;;9.43;3.97;;;;;;;9.02;53.62;101180.91;2121661;27;20209;-68
2023/04/21 20:38:17;;;;;;;7.10;3.40;;;;;;;9.02;54.18;101177.44;2121994;27;20234;-67
2023/04/21 20:39:24;;;;;;;7.68;3.97;;;;;;;9.00;54.78;101177.66;2122537;27;20307;-70
2023/04/21 20:40:29;;;;;;;9.23;3.60;;;;;;;8.99;54.65;101173.38;2121773;27;20385;-69
2023/04/21 20:41:42;;;;;;;7.60;3.75;;;;;;;8.98;54.49;101177.09;2120663;27;20242;-70
2023/04/21 20:42:57;;;;;;;11.48;3.67;;;;;;;8.96;54.25;101173.88;2120690;27;20202;-68
2023/04/21 20:44:07;;;;;;;6.30;3.90;;;;;;;8.94;54.60;101178.69;2112479;28;20250;-69
2023/04/21 20:45:16;;;;;;;8.95;4.07;;;;;;;8.92;54.57;101172.78;2114640;27;20341;-68
2023/04/21 20:46:22;;;;;;;7.30;3.42;;;;;;;8.90;54.49;101179.44;2120980;27;20195;-69
2023/04/21 20:47:28;;;;;;;7.95;4.00;;;;;;;8.87;54.35;101175.38;2113914;27;21328;-70
2023/04/21 20:48:30;;;;;;;8.95;3.90;;;;;;;8.87;54.56;101175.38;2113179;27;20270;-69
2023/04/21 20:49:35;;;;;;;8.68;4.07;;;;;;;8.86;54.62;101173.78;2112204;28;20290;-69
2023/04/21 20:50:41;;;;;;;7.15;3.72;;;;;;;8.86;55.10;101173.78;2120490;27;20257;-69
2023/04/21 20:51:45;;;;;;;6.15;3.65;;;;;;;8.86;54.95;101171.09;2120702;27;20842;-69
2023/04/21 20:52:48;;;;;;;8.50;4.22;;;;;;;8.86;55.13;101173.78;2121994;27;20206;-68
2023/04/21 20:53:52;;;;;;;10.45;5.18;;;;;;;8.84;54.28;101167.03;2085961;28;20263;-68
2023/04/21 20:55:00;;;;;;;9.15;4.57;;;;;;;8.53;53.16;101124.59;2105673;27;21020;-68
2023/04/21 20:56:02;;;;;;;10.32;5.18;;;;;;;8.82;54.19;101167.28;2104502;28;20242;-70
2023/04/21 20:57:06;;;;;;;9.60;4.88;;;;;;;8.84;54.40;101167.03;2104986;28;20275;-69
2023/04/21 20:58:11;;;;;;;7.32;4.15;;;;;;;8.82;54.88;101167.28;2108250;28;20219;-70
2023/04/21 20:59:15;;;;;;;10.43;4.25;;;;;;;8.83;54.67;101163.56;2113431;28;20255;-69
2023/04/21 21:00:18;;;;;;;8.57;4.53;;;;;;;8.80;54.61;101166.75;2105827;28;20215;-69
2023/04/21 21:01:22;;;;;;;10.50;5.15;;;;;;;8.78;54.02;101168.84;2088360;28;20296;-69
2023/04/21 21:02:28;;;;;;;10.65;4.85;;;;;;;8.77;54.63;101164.56;2105378;28;20196;-70
2023/04/21 21:03:51;;;;;;;9.88;4.78;;;;;;;8.74;54.59;101165.88;2113157;28;20294;-69
2023/04/21 21:04:55;;;;;;;12.43;5.10;;;;;;;8.74;54.42;101154.34;2090193;28;20298;-71
2023/04/21 21:06:02;;;;;;;12.23;5.03;;;;;;;8.72;54.49;101157.25;2089622;28;21122;-70
2023/04/21 21:07:03;;;;;;;10.07;5.07;;;;;;;8.70;54.22;101155.88;2104756;28;20255;-70
2023/04/21 21:08:10;;;;;;;11.70;6.25;;;;;;;8.71;53.98;101157.53;2113922;27;20219;-68
2023/04/21 21:09:12;;;;;;;12.20;5.50;;;;;;;8.64;53.45;101146.16;2113267;28;20246;-70
2023/04/21 21:10:15;;;;;;;11.45;5.22;;;;;;;8.68;53.85;101149.97;2105192;28;20262;-70
2023/04/21 21:11:21;;;;;;;11.88;4.97;;;;;;;8.70;53.11;101158.56;2112781;28;20243;-69
2023/04/21 21:12:26;;;;;;;10.50;4.68;;;;;;;8.71;53.21;101155.66;2105391;28;20211;-70
2023/04/21 21:13:28;;;;;;;12.63;4.65;;;;;;;8.71;52.68;101154.84;2104798;28;20212;-69
2023/04/21 21:14:35;;;;;;;8.57;4.75;;;;;;;8.68;53.53;101152.66;2105742;28;20235;-69
2023/04/21 21:15:45;;;;;;;9.02;4.63;;;;;;;8.67;52.81;101153.69;2113139;28;20334;-70
2023/04/21 21:16:53;;;;;;;14.48;5.03;;;;;;;8.64;52.89;101144.31;2113932;28;20206;-69
2023/04/21 21:17:54;;;;;;;10.60;4.70;;;;;;;8.66;53.12;101155.56;2113578;28;20297;-70
2023/04/21 21:19:01;;;;;;;9.05;4.68;;;;;;;8.67;53.87;101151.84;2105422;28;20192;-70
2023/04/21 21:20:09;;;;;;;12.13;4.97;;;;;;;8.66;54.16;101152.91;2105131;28;21654;-69
2023/04/21 21:21:16;;;;;;;11.05;5.00;;;;;;;8.67;53.53;101146.50;2112770;27;20227;-69
2023/04/21 21:22:24;;;;;;;11.60;5.30;;;;;;;8.66;53.97;101146.72;2105589;28;20292;-69
2023/04/21 21:23:31;;;;;;;11.63;4.60;;;;;;;8.63;53.87;101149.91;2105812;28;20244;-69
2023/04/21 21:24:38;;;;;;;9.23;4.45;;;;;;;8.57;53.40;101147.19;2113246;28;20199;-69
2023/04/21 21:25:40;;;;;;;10.98;5.28;;;;;;;8.61;53.09;101144.81;2105201;28;20048;-70
2023/04/21 21:26:44;;;;;;;12.63;4.50;;;;;;;8.62;53.20;101145.63;2096437;28;20259;-69
2023/04/21 21:27:46;;;;;;;11.10;5.28;;;;;;;8.58;52.98;101148.78;2097034;28;20266;-68
2023/04/21 21:28:50;;;;;;;12.63;5.05;;;;;;;8.58;53.30;101146.13;2096899;28;20384;-69
2023/04/21 21:29:52;;;;;;;14.88;4.80;;;;;;;8.57;53.15;101146.34;2096524;28;20975;-69
2023/04/21 21:30:56;;;;;;;13.57;4.85;;;;;;;8.59;52.84;101147.72;2088159;28;20221;-69
2023/04/21 21:32:00;;;;;;;12.70;4.93;;;;;;;8.59;52.56;101137.00;2097994;28;20346;-69
2023/04/21 21:33:01;;;;;;;11.18;4.65;;;;;;;8.60;52.56;101137.81;2104786;28;21104;-69
2023/04/21 21:34:05;;;;;;;11.52;4.88;;;;;;;8.61;52.41;101138.63;2096817;28;20219;-68
2023/04/21 21:35:10;;;;;;;11.65;5.13;;;;;;;8.61;52.73;101146.66;2105470;28;20206;-68
2023/04/21 21:36:12;;;;;;;12.27;5.05;;;;;;;8.58;52.63;101140.75;2113391;28;20239;-68
2023/04/21 21:37:15;;;;;;;12.07;5.07;;;;;;;8.58;52.80;101138.06;2104724;28;20207;-69
2023/04/21 21:38:20;;;;;;;11.82;5.18;;;;;;;8.57;53.13;101143.66;2098650;27;20247;-69
2023/04/21 21:39:25;;;;;;;12.80;5.75;;;;;;;8.56;51.92;101134.81;2114523;27;21074;-69
2023/04/21 21:40:35;;;;;;;14.88;5.50;;;;;;;8.58;52.05;101137.28;2121539;27;20256;-69
2023/04/21 21:41:40;;;;;;;14.20;5.68;;;;;;;8.59;52.06;101137.00;2121746;27;20233;-70
2023/04/21 21:42:42;;;;;;;11.38;5.30;;;;;;;8.56;52.25;101134.03;2113335;27;20207;-70
2023/04/21 21:43:46;;;;;;;14.38;5.50;;;;;;;8.55;52.74;101130.53;2121921;27;20206;-69
2023/04/21 21:44:49;;;;;;;15.57;6.53;;;;;;;8.50;52.42;101129.66;2121468;27;20199;-70
2023/04/21 21:45:55;;;;;;;23.15;7.07;;;;;;;8.53;52.01;101137.19;2121489;27;20288;-70
2023/04/21 21:47:00;;;;;;;15.88;6.25;;;;;;;8.49;52.38;101138.78;2119450;27;20332;-70
2023/04/21 21:48:03;;;;;;;14.05;6.72;;;;;;;8.49;52.24;101130.72;2097016;28;20240;-71
2023/04/21 21:49:04;;;;;;;13.15;7.07;;;;;;;8.47;52.18;101135.53;2088022;28;20999;-69
2023/04/21 21:50:16;;;;;;;15.35;7.20;;;;;;;8.47;52.58;101132.84;2105345;27;20999;-69
2023/04/21 21:51:27;;;;;;;14.75;7.00;;;;;;;8.45;52.36;101127.75;2119579;27;21008;-68
2023/04/21 21:52:33;;;;;;;17.65;7.60;;;;;;;8.42;52.09;101125.56;2113704;27;20211;-70
2023/04/21 21:53:40;;;;;;;19.33;7.70;;;;;;;8.36;52.40;101126.53;2121943;27;20190;-69
2023/04/21 21:54:47;;;;;;;19.40;7.90;;;;;;;8.32;52.19;101120.88;2121254;27;21119;-69
2023/04/21 21:55:50;;;;;;;18.92;7.68;;;;;;;8.32;52.13;101126.22;2113450;27;20210;-70
2023/04/21 21:56:52;;;;;;;15.27;7.95;;;;;;;8.34;52.63;101117.91;2104603;28;20208;-69
2023/04/21 21:57:54;;;;;;;16.15;7.30;;;;;;;8.33;53.18;101127.03;2104893;28;21054;-69
2023/04/21 21:59:04;;;;;;;19.02;7.68;;;;;;;8.31;53.03;101118.41;2113522;28;20215;-69
2023/04/21 22:00:12;;;;;;;19.45;7.65;;;;;;;8.33;52.75;101116.31;2112617;27;20207;-69
2023/04/21 22:01:18;;;;;;;20.35;8.50;;;;;;;8.32;52.81;101117.34;2121661;27;20242;-70
2023/04/21 22:02:19;;;;;;;21.83;9.13;;;;;;;8.30;53.08;101116.81;2105588;28;20298;-69
2023/04/21 22:03:30;;;;;;;25.50;8.52;;;;;;;8.32;52.62;101117.34;2113901;27;20211;-70
2023/04/21 22:04:31;;;;;;;23.25;8.80;;;;;;;8.34;52.94;101115.25;2113044;28;20215;-70
2023/04/21 22:05:36;;;;;;;18.13;8.32;;;;;;;8.34;53.02;101118.72;2113454;27;20235;-70
2023/04/21 22:06:41;;;;;;;20.30;8.70;;;;;;;8.26;53.35;101107.63;2105311;28;20310;-69
2023/04/21 22:07:45;;;;;;;19.92;8.45;;;;;;;8.32;53.10;101122.72;2112850;27;20330;-69
2023/04/21 22:08:48;;;;;;;25.88;8.88;;;;;;;8.31;53.14;101115.75;2104680;28;20266;-71
2023/04/21 22:09:53;;;;;;;19.85;8.85;;;;;;;8.31;53.03;101113.06;2105375;27;20204;-71
2023/04/21 22:10:54;;;;;;;28.85;9.27;;;;;;;8.23;53.01;101105.44;2112676;28;21143;-70
2023/04/21 22:12:05;;;;;;;23.17;9.18;;;;;;;8.31;53.21;101115.75;2103786;28;20219;-70
2023/04/21 22:13:07;;;;;;;18.13;8.52;;;;;;;8.30;53.21;101114.13;2098778;28;20227;-70
2023/04/21 22:14:14;;;;;;;19.98;8.55;;;;;;;8.32;53.49;101114.66;2113109;28;20974;-70
2023/04/21 22:15:19;;;;;;;;;;;;;;;8.33;53.62;101110.94;2113503;28;21013;-70
2023/04/21 22:16:23;;;;;;;24.13;9.10;;;;;;;8.33;53.38;101111.75;2113095;28;20057;-72
2023/04/21 22:17:30;;;;;;;21.95;8.93;;;;;;;8.35;53.59;101108.81;2113014;27;20325;-71
2023/04/21 22:18:32;;;;;;;20.15;8.93;;;;;;;8.34;53.75;101110.69;2112810;28;21087;-70
2023/04/21 22:19:40;;;;;;;22.50;8.98;;;;;;;8.34;53.50;101107.19;2113047;28;20380;-69
2023/04/21 22:20:42;;;;;;;29.15;9.27;;;;;;;8.32;53.95;101103.94;2121494;27;20230;-70
2023/04/21 22:21:48;;;;;;;25.67;9.88;;;;;;;8.29;53.25;101107.13;2104353;28;21465;-70
2023/04/21 22:22:53;;;;;;;23.55;9.48;;;;;;;8.21;52.85;101097.69;2089762;28;21172;-70
2023/04/21 22:24:02;;;;;;;25.83;9.55;;;;;;;8.27;52.71;101103.91;2105067;28;20413;-70
2023/04/21 22:25:07;;;;;;;26.10;9.40;;;;;;;8.20;53.02;101100.63;2096821;28;20257;-70
2023/04/21 22:26:11;;;;;;;22.63;8.93;;;;;;;8.23;52.67;101110.81;2105169;28;20286;-70
2023/04/21 22:27:16;;;;;;;20.67;7.70;;;;;;;8.21;52.67;101111.06;2113645;28;20247;-71
2023/04/21 22:28:19;;;;;;;21.55;8.15;;;;;;;8.22;52.49;101103.84;2113278;28;20310;-70
2023/04/21 22:29:21;;;;;;;19.85;8.32;;;;;;;8.22;52.51;101109.19;2113559;28;20226;-70
2023/04/21 22:30:25;;;;;;;20.13;8.82;;;;;;;8.23;52.24;101100.94;2112639;28;20251;-69
2023/04/21 22:31:30;;;;;;;19.63;8.45;;;;;;;8.22;52.30;101106.50;2112900;28;20239;-69
2023/04/21 22:32:37;;;;;;;16.92;7.38;;;;;;;8.19;52.13;101104.34;2112845;28;20255;-70
2023/04/21 22:33:56;;;;;;;17.80;7.68;;;;;;;8.01;52.45;101086.72;2112699;28;20333;-71
2023/04/21 22:34:59;;;;;;;17.15;7.68;;;;;;;8.15;52.12;101101.34;2121299;27;20210;-68
2023/04/21 22:36:05;;;;;;;20.35;7.63;;;;;;;8.18;52.04;101105.41;2112438;28;20235;-70
2023/04/21 22:37:12;;;;;;;20.17;7.90;;;;;;;8.18;52.49;101100.03;2104920;28;20215;-71
2023/04/21 22:38:18;;;;;;;18.42;7.00;;;;;;;8.16;52.63;101100.28;2106598;27;20208;-70
2023/04/21 22:39:22;;;;;;;16.63;7.10;;;;;;;8.17;53.08;101095.75;2105111;28;20612;-70
2023/04/21 22:40:27;;;;;;;19.30;7.18;;;;;;;8.18;53.17;101098.16;2113113;27;20243;-71
2023/04/21 22:41:28;;;;;;;17.67;6.97;;;;;;;8.17;53.04;101101.91;2121160;27;20249;-69
2023/04/21 22:42:31;;;;;;;19.55;7.05;;;;;;;8.11;52.86;101092.19;2112632;28;21171;-67
2023/04/21 22:43:38;;;;;;;14.10;5.47;;;;;;;8.17;52.77;101101.13;2105746;27;20286;-68
2023/04/21 22:44:42;;;;;;;12.65;5.45;;;;;;;8.14;52.00;101091.69;2113573;27;20242;-68
2023/04/21 22:45:44;;;;;;;17.25;6.28;;;;;;;8.16;52.89;101099.47;2113150;27;20218;-68
2023/04/21 22:46:47;;;;;;;17.77;6.47;;;;;;;8.12;52.92;101097.28;2112592;28;20223;-67
2023/04/21 22:47:49;;;;;;;12.98;5.82;;;;;;;8.09;52.35;101089.75;2104692;28;20223;-69
2023/04/21 22:48:55;;;;;;;11.25;5.10;;;;;;;8.09;51.63;101094.31;2104422;28;20306;-68
2023/04/21 22:49:58;;;;;;;13.63;5.05;;;;;;;8.04;51.06;101087.03;2097698;28;20331;-69
2023/04/21 22:51:03;;;;;;;11.45;5.47;;;;;;;8.04;50.89;101092.38;2104483;27;20223;-68
2023/04/21 22:52:13;;;;;;;13.13;5.28;;;;;;;8.04;51.27;101095.06;2112420;27;21065;-68
2023/04/21 22:53:14;;;;;;;15.18;5.18;;;;;;;8.04;51.68;101084.34;2112376;28;20226;-68
2023/04/21 22:54:20;;;;;;;12.80;5.05;;;;;;;8.00;50.83;101085.88;2104809;28;20207;-68
2023/04/21 22:55:24;;;;;;;13.52;5.43;;;;;;;8.03;51.31;101090.75;2096703;28;20245;-68
2023/04/21 22:56:29;;;;;;;12.55;5.85;;;;;;;8.03;51.86;101096.09;2096629;28;20254;-69
2023/04/21 22:57:36;;;;;;;11.55;5.10;;;;;;;8.00;51.93;101091.25;2105466;28;20218;-69
2023/04/21 22:58:38;;;;;;;12.65;5.30;;;;;;;7.99;51.36;101092.31;2098205;28;20972;-69
2023/04/21 22:59:41;;;;;;;14.40;5.43;;;;;;;7.99;51.52;101086.94;2097911;28;20415;-68
2023/04/21 23:00:48;;;;;;;10.52;5.13;;;;;;;8.02;51.75;101089.13;2114181;28;20211;-69
2023/04/21 23:01:53;;;;;;;10.13;5.05;;;;;;;8.02;50.94;101083.78;2114040;28;20239;-69
2023/04/21 23:02:57;;;;;;;12.73;4.95;;;;;;;8.03;50.85;101089.94;2110555;27;21184;-71
2023/04/21 23:04:01;;;;;;;10.63;4.63;;;;;;;8.02;49.63;101083.78;2114168;28;21472;-70
2023/04/21 23:05:06;;;;;;;11.75;4.57;;;;;;;8.00;49.83;101085.88;2106211;28;21049;-72
2023/04/21 23:06:12;;;;;;;10.65;4.90;;;;;;;8.00;50.14;101077.84;2098027;28;20220;-71
2023/04/21 23:07:17;;;;;;;11.35;4.55;;;;;;;7.98;49.92;101082.66;2099504;28;21174;-74
2023/04/21 23:08:27;;;;;;;7.32;4.43;;;;;;;8.01;50.22;101087.53;2114581;28;20247;-69
2023/04/21 23:09:29;;;;;;;12.15;4.35;;;;;;;8.01;50.00;101082.16;2115267;28;20974;-67
2023/04/21 23:10:35;;;;;;;8.32;4.47;;;;;;;8.00;50.16;101077.84;2114083;27;20199;-68
2023/04/21 23:11:45;;;;;;;;;;;;;;;8.03;49.94;101084.59;2108557;28;20211;-67
2023/04/21 23:12:51;;;;;;;8.88;3.80;;;;;;;8.01;49.33;101082.16;2106827;28;19916;-67
2023/04/21 23:13:54;;;;;;;9.57;4.32;;;;;;;8.01;48.62;101086.72;2110009;27;20247;-68
2023/04/21 23:15:01;;;;;;;8.60;3.58;;;;;;;8.00;48.34;101088.56;2105698;28;20809;-67